createdAt,value
2022-12-12T00:01:43.604Z,12.30
2022-12-12T00:04:12.269Z,12.00
2022-12-12T00:06:42.055Z,12.90
2022-12-12T00:09:10.682Z,15.77
2022-12-12T00:11:39.630Z,11.37
2022-12-12T00:14:08.571Z,13.93
2022-12-12T00:16:36.920Z,12.52
2022-12-12T00:19:05.234Z,10.98
2022-12-12T00:21:33.575Z,11.60
2022-12-12T00:24:03.269Z,11.00
2022-12-12T00:26:33.451Z,14.40
2022-12-12T00:29:03.509Z,13.30
2022-12-12T00:31:31.928Z,15.95
2022-12-12T00:34:00.363Z,10.73
2022-12-12T00:36:30.841Z,13.25
2022-12-12T00:39:00.161Z,11.75
2022-12-12T00:41:30.124Z,13.05
2022-12-12T00:43:58.549Z,10.55
2022-12-12T00:46:27.338Z,11.73
2022-12-12T00:48:56.819Z,11.75
2022-12-12T00:51:27.016Z,11.25
2022-12-12T00:53:57.931Z,15.23
2022-12-12T00:56:26.896Z,8.75
2022-12-12T00:58:56.807Z,15.55
2022-12-12T01:01:27.223Z,14.57
2022-12-12T01:03:55.798Z,16.05
2022-12-12T01:06:24.412Z,11.82
2022-12-12T01:08:53.064Z,12.27
2022-12-12T01:11:21.876Z,13.10
2022-12-12T01:13:51.239Z,12.35
2022-12-12T01:16:21.182Z,14.88
2022-12-12T01:18:49.520Z,14.40
2022-12-12T01:21:19.302Z,12.63
2022-12-12T01:23:47.804Z,10.73
2022-12-12T01:26:18.551Z,14.13
2022-12-12T01:28:47.243Z,16.00
2022-12-12T01:31:15.860Z,16.25
2022-12-12T01:33:46.504Z,15.30
2022-12-12T01:36:16.891Z,15.00
2022-12-12T01:38:45.886Z,17.52
2022-12-12T01:41:14.719Z,12.15
2022-12-12T01:43:43.704Z,17.00
2022-12-12T01:46:45.690Z,15.43
2022-12-12T01:49:24.737Z,16.88
2022-12-12T01:51:55.041Z,13.13
2022-12-12T01:54:27.073Z,15.82
2022-12-12T01:56:56.750Z,13.38
2022-12-12T01:59:26.214Z,12.70
2022-12-12T02:01:54.955Z,12.75
2022-12-12T02:04:25.094Z,17.30
2022-12-12T02:06:54.450Z,14.27
2022-12-12T02:09:25.143Z,14.95
2022-12-12T02:11:58.257Z,21.17
2022-12-12T02:14:29.407Z,20.00
2022-12-12T02:17:19.204Z,13.70
2022-12-12T02:20:21.020Z,12.32
2022-12-12T02:23:08.645Z,13.20
2022-12-12T02:26:00.275Z,13.02
2022-12-12T02:28:49.944Z,17.00
2022-12-12T02:31:22.754Z,16.30
2022-12-12T02:33:54.923Z,17.05
2022-12-12T02:36:29.062Z,16.30
2022-12-12T02:39:03.995Z,13.80
2022-12-12T02:41:37.540Z,14.43
2022-12-12T02:44:12.862Z,14.18
2022-12-12T02:46:49.680Z,13.23
2022-12-12T02:49:21.826Z,11.55
2022-12-12T02:51:52.302Z,14.57
2022-12-12T02:54:23.268Z,14.07
2022-12-12T02:56:56.487Z,15.52
2022-12-12T02:59:28.154Z,12.80
2022-12-12T03:02:20.173Z,13.00
2022-12-12T03:05:25.623Z,12.82
2022-12-12T03:08:03.213Z,12.98
2022-12-12T03:10:43.245Z,12.48
2022-12-12T03:13:15.170Z,11.45
2022-12-12T03:15:49.032Z,12.23
2022-12-12T03:18:24.894Z,9.00
2022-12-12T03:20:56.291Z,11.00
2022-12-12T03:23:28.563Z,9.82
2022-12-12T03:26:00.344Z,14.10
2022-12-12T03:28:33.112Z,10.00
2022-12-12T03:31:05.650Z,13.75
2022-12-12T03:33:40.735Z,12.98
2022-12-12T03:36:12.076Z,13.75
2022-12-12T03:38:43.270Z,15.30
2022-12-12T03:41:15.822Z,14.50
2022-12-12T03:43:48.251Z,14.05
2022-12-12T03:46:19.282Z,9.93
2022-12-12T03:48:51.856Z,14.52
2022-12-12T03:51:22.747Z,12.73
2022-12-12T03:53:55.120Z,12.90
2022-12-12T03:56:27.198Z,16.20
2022-12-12T03:58:58.923Z,12.25
2022-12-12T04:01:35.162Z,11.63
2022-12-12T04:04:10.936Z,9.68
2022-12-12T04:06:41.376Z,14.65
2022-12-12T04:09:30.495Z,13.93
2022-12-12T04:12:19.615Z,13.07
2022-12-12T04:15:15.361Z,16.38
2022-12-12T04:17:45.755Z,10.30
2022-12-12T04:20:41.170Z,14.50
2022-12-12T04:23:19.051Z,14.32
2022-12-12T04:26:18.777Z,12.13
2022-12-12T04:28:54.200Z,10.65
2022-12-12T04:31:25.011Z,12.98
2022-12-12T04:33:57.739Z,11.82
2022-12-12T04:36:27.849Z,12.73
2022-12-12T04:38:57.193Z,15.07
2022-12-12T04:41:26.769Z,13.15
2022-12-12T04:43:56.254Z,16.05
2022-12-12T04:46:26.122Z,15.10
2022-12-12T04:48:56.347Z,13.88
2022-12-12T04:51:28.128Z,13.32
2022-12-12T04:54:00.881Z,13.68
2022-12-12T04:56:31.177Z,13.38
2022-12-12T04:58:59.587Z,14.18
2022-12-12T05:01:34.924Z,14.23
2022-12-12T05:04:05.616Z,14.35
2022-12-12T05:06:40.343Z,14.73
2022-12-12T05:09:08.976Z,13.95
2022-12-12T05:11:37.368Z,14.40
2022-12-12T05:14:08.929Z,14.93
2022-12-12T05:16:39.843Z,21.88
2022-12-12T05:19:08.393Z,10.70
2022-12-12T05:21:38.113Z,14.88
2022-12-12T05:24:07.106Z,12.75
2022-12-12T05:26:36.114Z,12.68
2022-12-12T05:29:07.640Z,14.32
2022-12-12T05:31:36.307Z,16.92
2022-12-12T05:34:05.172Z,10.18
2022-12-12T05:36:33.518Z,14.05
2022-12-12T05:39:03.260Z,13.88
2022-12-12T05:41:31.665Z,17.63
2022-12-12T05:43:59.918Z,12.20
2022-12-12T05:46:28.516Z,14.05
2022-12-12T05:48:56.982Z,13.43
2022-12-12T05:51:25.374Z,14.13
2022-12-12T05:53:54.202Z,19.10
2022-12-12T05:56:24.006Z,14.98
2022-12-12T05:58:52.718Z,12.45
2022-12-12T06:01:21.093Z,16.05
2022-12-12T06:03:50.999Z,13.20
2022-12-12T06:06:19.547Z,13.10
2022-12-12T06:08:48.138Z,13.13
2022-12-12T06:11:16.598Z,17.05
2022-12-12T06:13:47.368Z,13.75
2022-12-12T06:16:18.014Z,14.13
2022-12-12T06:18:51.133Z,15.18
2022-12-12T06:21:20.759Z,17.10
2022-12-12T06:23:50.423Z,14.70
2022-12-12T06:26:20.018Z,13.52
2022-12-12T06:28:49.944Z,14.50
2022-12-12T06:31:18.596Z,13.73
2022-12-12T06:33:47.214Z,15.90
2022-12-12T06:36:22.669Z,17.65
2022-12-12T06:38:51.801Z,19.00
2022-12-12T06:41:23.041Z,15.35
2022-12-12T06:43:53.571Z,12.68
2022-12-12T06:46:24.432Z,17.33
2022-12-12T06:48:54.549Z,17.20
2022-12-12T06:51:26.134Z,15.57
2022-12-12T06:53:55.328Z,15.25
2022-12-12T06:56:25.389Z,12.63
2022-12-12T06:58:56.827Z,14.15
2022-12-12T07:01:31.332Z,16.17
2022-12-12T07:04:01.553Z,20.00
2022-12-12T07:06:30.718Z,12.18
2022-12-12T07:09:01.417Z,10.32
2022-12-12T07:11:31.341Z,14.38
2022-12-12T07:14:05.690Z,14.25
2022-12-12T07:16:35.156Z,18.33
2022-12-12T07:19:06.346Z,15.38
2022-12-12T07:21:34.788Z,18.98
2022-12-12T07:24:04.663Z,18.58
2022-12-12T07:26:33.389Z,15.75
2022-12-12T07:29:05.473Z,14.20
2022-12-12T07:31:35.100Z,18.65
2022-12-12T07:34:03.590Z,21.95
2022-12-12T07:36:32.023Z,19.55
2022-12-12T07:39:02.781Z,41.38
2022-12-12T07:41:32.057Z,20.80
2022-12-12T07:44:04.933Z,19.05
2022-12-12T07:46:33.763Z,18.58
2022-12-12T07:49:04.831Z,18.95
2022-12-12T07:51:34.301Z,26.05
2022-12-12T07:54:08.151Z,17.60
2022-12-12T07:56:37.100Z,22.38
2022-12-12T07:59:08.061Z,23.90
2022-12-12T08:01:36.528Z,23.05
2022-12-12T08:04:10.284Z,16.70
2022-12-12T08:06:41.144Z,16.23
2022-12-12T08:09:11.361Z,13.32
2022-12-12T08:11:46.118Z,15.32
2022-12-12T08:14:17.211Z,16.52
2022-12-12T08:16:46.247Z,16.02
2022-12-12T08:19:15.605Z,20.53
2022-12-12T08:21:44.768Z,13.70
2022-12-12T08:24:14.385Z,14.68
2022-12-12T08:26:45.039Z,21.37
2022-12-12T08:29:14.749Z,24.23
2022-12-12T08:31:47.029Z,24.93
2022-12-12T08:34:16.267Z,15.00
2022-12-12T08:36:50.640Z,19.03
2022-12-12T08:39:20.106Z,15.57
2022-12-12T08:41:51.871Z,17.20
2022-12-12T08:44:22.164Z,13.53
2022-12-12T08:46:52.376Z,10.53
2022-12-12T08:49:22.006Z,12.03
2022-12-12T08:51:53.070Z,9.00
2022-12-12T08:54:22.100Z,10.87
2022-12-12T08:56:50.418Z,9.93
2022-12-12T08:59:19.004Z,8.00
2022-12-12T09:01:47.827Z,10.83
2022-12-12T09:04:17.768Z,10.67
2022-12-12T09:06:46.955Z,7.27
2022-12-12T09:09:15.952Z,8.00
2022-12-12T09:11:44.256Z,11.87
2022-12-12T09:14:12.853Z,10.40
2022-12-12T09:16:41.426Z,12.97
2022-12-12T09:19:10.388Z,10.83
2022-12-12T09:21:40.171Z,12.67
2022-12-12T09:24:09.273Z,10.53
2022-12-12T09:26:37.732Z,12.57
2022-12-12T09:29:07.335Z,12.40
2022-12-12T09:31:35.935Z,13.83
2022-12-12T09:34:04.581Z,12.03
2022-12-12T09:36:32.936Z,12.43
2022-12-12T09:39:02.966Z,9.83
2022-12-12T09:41:31.899Z,11.37
2022-12-12T09:44:03.356Z,9.87
2022-12-12T09:46:37.738Z,9.97
2022-12-12T09:49:16.227Z,10.07
2022-12-12T09:51:47.858Z,9.77
2022-12-12T09:54:20.659Z,13.93
2022-12-12T09:57:03.360Z,11.23
2022-12-12T09:59:39.442Z,10.23
2022-12-12T10:02:33.025Z,8.43
2022-12-12T10:05:04.422Z,10.40
2022-12-12T10:07:37.941Z,8.47
2022-12-12T10:10:14.558Z,8.90
2022-12-12T10:12:43.333Z,7.47
2022-12-12T10:15:24.566Z,5.40
2022-12-12T10:17:54.326Z,10.90
2022-12-12T10:20:25.937Z,7.63
2022-12-12T10:22:58.749Z,7.70
2022-12-12T10:25:33.399Z,7.20
2022-12-12T10:28:10.756Z,7.60
2022-12-12T10:30:57.982Z,7.80
2022-12-12T10:33:32.386Z,8.40
2022-12-12T10:36:06.755Z,10.67
2022-12-12T10:38:47.439Z,8.20
2022-12-12T10:41:24.572Z,7.47
2022-12-12T10:44:02.404Z,7.40
2022-12-12T10:46:33.112Z,8.00
2022-12-12T10:49:01.541Z,8.17
2022-12-12T10:51:31.206Z,7.80
2022-12-12T10:53:59.763Z,4.60
2022-12-12T10:56:30.181Z,6.23
2022-12-12T10:59:00.040Z,6.27
2022-12-12T11:02:07.920Z,6.20
2022-12-12T11:04:21.702Z,2.60
2022-12-12T11:06:52.871Z,3.47
2022-12-12T11:09:22.747Z,4.37
2022-12-12T11:12:04.059Z,3.70
2022-12-12T11:14:35.641Z,4.93
2022-12-12T11:17:21.521Z,5.37
2022-12-12T11:19:50.217Z,5.40
2022-12-12T11:22:19.105Z,5.10
2022-12-12T11:24:48.862Z,3.40
2022-12-12T11:27:22.873Z,4.13
2022-12-12T11:29:52.736Z,3.57
2022-12-12T11:32:23.097Z,3.80
2022-12-12T11:34:54.156Z,3.30
2022-12-12T11:37:26.860Z,3.40
2022-12-12T11:39:55.548Z,4.13
2022-12-12T11:42:28.524Z,5.33
2022-12-12T11:45:02.803Z,3.97
2022-12-12T11:47:38.536Z,4.27
2022-12-12T11:50:19.219Z,4.47
2022-12-12T11:52:47.698Z,4.70
2022-12-12T11:55:17.763Z,7.70
2022-12-12T11:58:04.628Z,6.17
2022-12-12T12:00:38.764Z,5.27
2022-12-12T12:03:32.997Z,3.10
2022-12-12T12:06:35.769Z,3.50
2022-12-12T12:09:20.017Z,3.10
2022-12-12T12:11:56.883Z,2.80
2022-12-12T12:15:07.245Z,3.63
2022-12-12T12:18:03.717Z,3.40
2022-12-12T12:20:44.303Z,3.23
2022-12-12T12:23:20.425Z,3.00
2022-12-12T12:25:53.346Z,3.20
2022-12-12T12:28:54.714Z,6.13
2022-12-12T12:31:29.239Z,3.43
2022-12-12T12:34:09.556Z,2.80
2022-12-12T12:36:46.893Z,3.50
2022-12-12T12:39:24.894Z,4.53
2022-12-12T12:42:07.296Z,3.00
2022-12-12T12:44:45.732Z,4.40
2022-12-12T12:47:24.939Z,3.57
2022-12-12T12:49:55.922Z,2.47
2022-12-12T12:52:29.495Z,3.10
2022-12-12T12:54:58.800Z,4.40
2022-12-12T12:57:29.331Z,4.70
2022-12-12T13:00:00.454Z,4.30
2022-12-12T13:02:41.711Z,3.03
2022-12-12T13:05:14.359Z,4.50
2022-12-12T13:07:48.870Z,2.47
2022-12-12T13:10:20.951Z,4.23
2022-12-12T13:12:55.399Z,4.60
2022-12-12T13:15:27.764Z,6.63
2022-12-12T13:18:01.528Z,3.23
2022-12-12T13:20:32.433Z,2.00
2022-12-12T13:23:09.457Z,0.90
2022-12-12T13:25:40.946Z,1.80
2022-12-12T13:28:13.786Z,4.10
2022-12-12T13:30:59.620Z,2.30
2022-12-12T13:33:51.236Z,1.15
2022-12-12T13:36:27.634Z,2.03
2022-12-12T13:38:59.304Z,2.20
2022-12-12T13:41:28.044Z,1.50
2022-12-12T13:43:58.484Z,4.70
2022-12-12T13:46:42.448Z,1.05
2022-12-12T13:49:40.342Z,1.07
2022-12-12T13:52:41.210Z,3.93
2022-12-12T13:55:22.157Z,1.98
2022-12-12T13:58:17.939Z,1.53
2022-12-12T14:00:46.360Z,1.90
2022-12-12T14:03:30.661Z,1.30
2022-12-12T14:06:12.096Z,4.27
2022-12-12T14:08:49.405Z,1.60
2022-12-12T14:11:28.719Z,2.25
2022-12-12T14:14:09.354Z,1.30
2022-12-12T14:16:38.612Z,3.33
2022-12-12T14:19:09.044Z,1.87
2022-12-12T14:21:48.477Z,4.82
2022-12-12T14:25:05.773Z,2.30
2022-12-12T14:28:04.373Z,1.50
2022-12-12T14:30:42.117Z,1.83
2022-12-12T14:33:26.597Z,1.90
2022-12-12T14:36:01.970Z,3.13
2022-12-12T14:38:36.607Z,3.80
2022-12-12T14:41:07.355Z,1.70
2022-12-12T14:43:37.151Z,1.88
2022-12-12T14:46:06.720Z,1.77
2022-12-12T14:48:36.567Z,2.47
2022-12-12T14:51:11.669Z,2.70
2022-12-12T14:53:48.507Z,4.35
2022-12-12T14:56:19.420Z,2.27
2022-12-12T14:58:51.896Z,1.10
2022-12-12T15:01:31.248Z,1.83
2022-12-12T15:04:00.455Z,2.28
2022-12-12T15:06:31.274Z,2.90
2022-12-12T15:09:15.652Z,1.80
2022-12-12T15:11:44.610Z,2.45
2022-12-12T15:14:21.350Z,1.85
2022-12-12T15:16:54.650Z,1.52
2022-12-12T15:19:26.572Z,3.55
2022-12-12T15:21:55.235Z,1.15
2022-12-12T15:24:27.527Z,1.65
2022-12-12T15:26:57.463Z,2.65
2022-12-12T15:29:28.709Z,1.20
2022-12-12T15:32:01.352Z,2.03
2022-12-12T15:34:31.967Z,1.13
2022-12-12T15:37:11.837Z,1.98
2022-12-12T15:39:41.683Z,2.35
2022-12-12T15:42:11.248Z,3.10
2022-12-12T15:44:39.806Z,7.85
2022-12-12T15:47:08.248Z,4.93
2022-12-12T15:49:38.327Z,5.70
2022-12-12T15:52:12.757Z,3.90
2022-12-12T15:54:49.113Z,4.82
2022-12-12T15:57:20.412Z,6.35
2022-12-12T15:59:54.515Z,9.93
2022-12-12T16:02:25.346Z,5.30
2022-12-12T16:04:56.805Z,5.05
2022-12-12T16:07:26.002Z,6.55
2022-12-12T16:10:05.615Z,1.58
2022-12-12T16:12:56.458Z,8.15
2022-12-12T16:15:32.935Z,6.22
2022-12-12T16:18:08.960Z,5.97
2022-12-12T16:20:37.377Z,6.05
2022-12-12T16:23:23.006Z,5.55
2022-12-12T16:25:52.815Z,8.05
2022-12-12T16:28:25.608Z,5.78
2022-12-12T16:30:59.649Z,5.07
2022-12-12T16:33:34.249Z,4.90
2022-12-12T16:36:06.497Z,5.25
2022-12-12T16:38:35.396Z,8.95
2022-12-12T16:41:07.774Z,4.00
2022-12-12T16:43:36.464Z,4.43
2022-12-12T16:46:05.067Z,5.00
2022-12-12T16:48:35.226Z,6.57
2022-12-12T16:51:06.359Z,6.65
2022-12-12T16:53:35.389Z,1.98
2022-12-12T16:56:05.756Z,13.57
2022-12-12T16:58:34.968Z,9.85
2022-12-12T17:01:03.919Z,5.18
2022-12-12T17:03:33.082Z,4.22
2022-12-12T17:06:05.181Z,3.15
2022-12-12T17:08:34.181Z,3.08
2022-12-12T17:11:10.108Z,4.00
2022-12-12T17:13:43.863Z,6.50
2022-12-12T17:16:12.489Z,7.80
2022-12-12T17:18:40.816Z,3.22
2022-12-12T17:21:10.687Z,5.47
2022-12-12T17:23:41.166Z,19.60
2022-12-12T17:26:10.740Z,6.85
2022-12-12T17:28:40.842Z,3.17
2022-12-12T17:31:11.725Z,5.45
2022-12-12T17:33:49.958Z,5.40
2022-12-12T17:36:19.831Z,3.78
2022-12-12T17:38:49.007Z,3.22
2022-12-12T17:41:17.773Z,3.45
2022-12-12T17:43:52.161Z,4.97
2022-12-12T17:46:25.143Z,3.45
2022-12-12T17:48:54.324Z,2.55
2022-12-12T17:51:25.343Z,7.28
2022-12-12T17:53:54.701Z,2.78
2022-12-12T17:56:26.622Z,2.92
2022-12-12T17:58:58.180Z,1.55
2022-12-12T18:01:30.010Z,5.10
2022-12-12T18:03:59.858Z,1.85
2022-12-12T18:06:31.640Z,5.70
2022-12-12T18:09:02.510Z,2.33
2022-12-12T18:11:33.668Z,3.78
2022-12-12T18:14:05.831Z,4.70
2022-12-12T18:16:37.157Z,1.45
2022-12-12T18:19:06.973Z,2.40
2022-12-12T18:21:59.936Z,1.23
2022-12-12T18:24:29.402Z,4.85
2022-12-12T18:27:00.132Z,4.22
2022-12-12T18:29:32.710Z,3.72
2022-12-12T18:32:02.294Z,4.18
2022-12-12T18:34:31.400Z,1.73
2022-12-12T18:37:00.705Z,4.95
2022-12-12T18:39:31.311Z,5.60
2022-12-12T18:42:01.868Z,3.90
2022-12-12T18:44:33.081Z,3.45
2022-12-12T18:47:02.510Z,5.13
2022-12-12T18:49:31.862Z,2.22
2022-12-12T18:52:05.048Z,3.88
2022-12-12T18:54:35.986Z,6.70
2022-12-12T18:57:07.062Z,3.55
2022-12-12T18:59:39.467Z,2.90
2022-12-12T19:02:09.420Z,4.82
2022-12-12T19:04:39.278Z,3.40
2022-12-12T19:07:11.292Z,5.70
2022-12-12T19:09:40.978Z,11.90
2022-12-12T19:12:14.817Z,9.10
2022-12-12T19:17:38.588Z,9.40
2022-12-12T19:20:09.734Z,6.35
2022-12-12T19:22:45.571Z,6.95
2022-12-12T19:25:16.635Z,9.60
2022-12-12T19:27:48.005Z,7.93
2022-12-12T19:30:21.629Z,10.98
2022-12-12T19:32:52.004Z,8.40
2022-12-12T19:35:22.191Z,10.50
2022-12-12T19:37:55.906Z,7.13
2022-12-12T19:40:28.937Z,7.60
2022-12-12T19:42:58.772Z,6.47
2022-12-12T19:45:33.644Z,9.60
2022-12-12T19:48:08.280Z,8.15
2022-12-12T19:50:39.871Z,7.32
2022-12-12T19:53:12.897Z,13.90
2022-12-12T19:55:52.835Z,10.20
2022-12-12T19:58:23.397Z,8.70
2022-12-12T20:00:57.474Z,12.45
2022-12-12T20:03:31.084Z,9.55
2022-12-12T20:06:08.809Z,17.63
2022-12-12T20:08:40.500Z,21.48
2022-12-12T20:11:12.742Z,17.90
2022-12-12T20:13:43.467Z,17.15
2022-12-12T20:16:17.331Z,16.83
2022-12-12T20:18:50.753Z,20.33
2022-12-12T20:21:59.365Z,17.08
2022-12-12T20:24:16.943Z,19.88
2022-12-12T20:26:47.027Z,20.58
2022-12-12T20:29:17.767Z,18.55
2022-12-12T20:31:53.024Z,21.23
2022-12-12T20:34:29.960Z,19.05
2022-12-12T20:37:00.680Z,17.40
2022-12-12T20:39:30.122Z,25.45
2022-12-12T20:42:00.424Z,16.08
2022-12-12T20:44:30.493Z,13.77
2022-12-12T20:47:02.371Z,10.60
2022-12-12T20:49:34.576Z,13.57
2022-12-12T20:52:04.180Z,13.13
2022-12-12T20:54:33.922Z,15.80
2022-12-12T20:57:03.652Z,20.67
2022-12-12T20:59:35.047Z,20.30
2022-12-12T21:02:05.662Z,17.50
2022-12-12T21:04:35.632Z,14.98
2022-12-12T21:07:08.534Z,17.38
2022-12-12T21:09:37.608Z,21.67
2022-12-12T21:12:06.658Z,23.48
2022-12-12T21:14:37.178Z,21.17
2022-12-12T21:17:07.494Z,24.92
2022-12-12T21:19:35.974Z,22.88
2022-12-12T21:22:05.731Z,25.50
2022-12-12T21:24:34.834Z,25.38
2022-12-12T21:27:03.421Z,22.88
2022-12-12T21:29:32.146Z,23.90
2022-12-12T21:32:00.697Z,16.95
2022-12-12T21:34:30.902Z,21.60
2022-12-12T21:36:59.357Z,21.70
2022-12-12T21:39:29.241Z,16.95
2022-12-12T21:41:57.739Z,18.13
2022-12-12T21:44:26.449Z,15.60
2022-12-12T21:46:54.995Z,15.38
2022-12-12T21:49:31.079Z,20.40
2022-12-12T21:52:02.860Z,27.85
2022-12-12T21:54:31.847Z,18.48
2022-12-12T21:57:00.873Z,29.38
2022-12-12T21:59:30.046Z,15.65
2022-12-12T22:02:00.188Z,17.67
2022-12-12T22:04:28.978Z,19.15
2022-12-12T22:06:58.761Z,18.50
2022-12-12T22:09:28.570Z,19.58
2022-12-12T22:12:03.360Z,21.25
2022-12-12T22:14:33.215Z,15.63
2022-12-12T22:17:01.927Z,15.88
2022-12-12T22:19:30.345Z,19.15
2022-12-12T22:21:58.751Z,22.30
2022-12-12T22:24:28.432Z,12.23
2022-12-12T22:26:56.846Z,19.58
2022-12-12T22:29:25.140Z,18.05
2022-12-12T22:31:53.610Z,15.27
2022-12-12T22:34:23.484Z,17.33
2022-12-12T22:36:52.470Z,17.75
2022-12-12T22:39:23.566Z,20.00
2022-12-12T22:41:53.910Z,12.25
2022-12-12T22:44:23.607Z,21.40
2022-12-12T22:46:53.535Z,16.65
2022-12-12T22:49:26.345Z,21.00
2022-12-12T22:51:55.724Z,17.05
2022-12-12T22:54:24.322Z,13.70
2022-12-12T22:56:54.345Z,8.98
2022-12-12T22:59:22.594Z,5.32
2022-12-12T23:01:50.975Z,7.63
2022-12-12T23:04:19.564Z,9.95
2022-12-12T23:06:47.873Z,12.60
2022-12-12T23:09:18.275Z,7.90
2022-12-12T23:11:47.066Z,12.35
2022-12-12T23:14:19.521Z,9.05
2022-12-12T23:16:47.802Z,8.48
2022-12-12T23:19:18.330Z,9.52
2022-12-12T23:21:46.926Z,7.95
2022-12-12T23:24:15.601Z,11.48
2022-12-12T23:26:44.092Z,7.00
2022-12-12T23:29:16.412Z,10.77
2022-12-12T23:31:46.137Z,13.93
2022-12-12T23:34:16.522Z,12.02
2022-12-12T23:36:45.100Z,10.30
2022-12-12T23:39:14.283Z,11.93
2022-12-12T23:41:42.966Z,12.23
2022-12-12T23:44:11.871Z,11.70
2022-12-12T23:46:40.639Z,12.05
2022-12-12T23:49:16.181Z,9.38
2022-12-12T23:51:46.601Z,9.20
2022-12-12T23:54:17.483Z,13.60
2022-12-12T23:56:46.624Z,9.32
2022-12-12T23:59:18.082Z,7.68
